sensor_id;sensor_type;location;lat;lon;timestamp;pressure;altitude;pressure_sealevel;temperature
25514;BMP180;48128;54.242;10.280;2023-03-01T00:00:03;102711.00;;;-1.50
25514;BMP180;48128;54.242;10.280;2023-03-01T00:02:30;102714.00;;;-1.50
25514;BMP180;48128;54.242;10.280;2023-03-01T00:04:56;102714.00;;;-1.50
25514;BMP180;48128;54.242;10.280;2023-03-01T00:07:23;102718.00;;;-1.50
25514;BMP180;48128;54.242;10.280;2023-03-01T00:09:50;102712.00;;;-1.50
25514;BMP180;48128;54.242;10.280;2023-03-01T00:12:17;102704.00;;;-1.60
25514;BMP180;48128;54.242;10.280;2023-03-01T00:14:44;102703.00;;;-1.60
25514;BMP180;48128;54.242;10.280;2023-03-01T00:17:10;102699.00;;;-1.50
25514;BMP180;48128;54.242;10.280;2023-03-01T00:19:37;102702.00;;;-1.60
25514;BMP180;48128;54.242;10.280;2023-03-01T00:22:04;102710.00;;;-1.60
25514;BMP180;48128;54.242;10.280;2023-03-01T00:24:31;102711.00;;;-1.60
25514;BMP180;48128;54.242;10.280;2023-03-01T00:26:58;102715.00;;;-1.60
25514;BMP180;48128;54.242;10.280;2023-03-01T00:29:25;102727.00;;;-1.60
25514;BMP180;48128;54.242;10.280;2023-03-01T00:31:52;102717.00;;;-1.70
25514;BMP180;48128;54.242;10.280;2023-03-01T00:34:19;102708.00;;;-1.70
25514;BMP180;48128;54.242;10.280;2023-03-01T00:36:46;102707.00;;;-1.70
25514;BMP180;48128;54.242;10.280;2023-03-01T00:39:14;102716.00;;;-1.70
25514;BMP180;48128;54.242;10.280;2023-03-01T00:41:41;102707.00;;;-1.70
25514;BMP180;48128;54.242;10.280;2023-03-01T00:44:09;102711.00;;;-1.70
25514;BMP180;48128;54.242;10.280;2023-03-01T00:46:36;102711.00;;;-1.70
25514;BMP180;48128;54.242;10.280;2023-03-01T00:49:03;102718.00;;;-1.70
25514;BMP180;48128;54.242;10.280;2023-03-01T00:51:31;102717.00;;;-1.80
25514;BMP180;48128;54.242;10.280;2023-03-01T00:54:00;102716.00;;;-1.80
25514;BMP180;48128;54.242;10.280;2023-03-01T00:56:28;102710.00;;;-1.80
25514;BMP180;48128;54.242;10.280;2023-03-01T00:58:56;102704.00;;;-1.80
25514;BMP180;48128;54.242;10.280;2023-03-01T01:01:26;102703.00;;;-1.80
25514;BMP180;48128;54.242;10.280;2023-03-01T01:04:03;102715.00;;;-1.80
25514;BMP180;48128;54.242;10.280;2023-03-01T01:08:59;102691.00;;;-1.80
25514;BMP180;48128;54.242;10.280;2023-03-01T01:11:27;102685.00;;;-1.90
25514;BMP180;48128;54.242;10.280;2023-03-01T01:13:54;102693.00;;;-1.90
25514;BMP180;48128;54.242;10.280;2023-03-01T01:16:22;102684.00;;;-1.90
25514;BMP180;48128;54.242;10.280;2023-03-01T01:18:50;102688.00;;;-1.80
25514;BMP180;48128;54.242;10.280;2023-03-01T01:21:19;102683.00;;;-1.70
25514;BMP180;48128;54.242;10.280;2023-03-01T01:23:46;102679.00;;;-1.60
25514;BMP180;48128;54.242;10.280;2023-03-01T01:26:16;102676.00;;;-1.50
25514;BMP180;48128;54.242;10.280;2023-03-01T01:28:43;102666.00;;;-1.40
25514;BMP180;48128;54.242;10.280;2023-03-01T01:31:10;102675.00;;;-1.30
25514;BMP180;48128;54.242;10.280;2023-03-01T01:33:37;102671.00;;;-1.30
25514;BMP180;48128;54.242;10.280;2023-03-01T01:36:05;102661.00;;;-1.20
25514;BMP180;48128;54.242;10.280;2023-03-01T01:38:34;102659.00;;;-1.20
25514;BMP180;48128;54.242;10.280;2023-03-01T01:41:01;102670.00;;;-1.20
25514;BMP180;48128;54.242;10.280;2023-03-01T01:43:30;102675.00;;;-1.10
25514;BMP180;48128;54.242;10.280;2023-03-01T01:48:54;102664.00;;;-1.10
25514;BMP180;48128;54.242;10.280;2023-03-01T01:51:24;102666.00;;;-1.00
